Terminal Aerodrome Forecast
Issued by NWS Cleveland, OH

Home | Current Version | Previous Version | Graphics & Text | Print | Product List | Glossary On
Versions: 1 2 3 4 5 6 7 8 9 10 11 12 13 14 15 16 17
000
FTUS41 KCLE 270200 AAB
TAFYNG
TAF AMD
KYNG 270259Z 2703/2724 35008KT 6SM -SN SCT009 OVC012
      TEMPO 2708/2712 BKN009 OVC012
     FM272100 34008KT P6SM SCT009 OVC012=

USA.gov is the U.S. government's official web portal to all federal, state and local government web resources and services.